This is the latest recevied weather packets stored in our database for station/object OZ1IEP-5. If no packets are shown the sender has not sent any weather packets the latest 10 day(s).
| Time | Temp. | Humidity | Pressure | Rain* | Wind** | Luminosity | Snow |
|---|---|---|---|---|---|---|---|
| 1777917608 | 12.22° C | 70% | 1009.7 hPa | 0 mm | - | 37 W/m² | - |
| 1777917005 | 12.78° C | 69% | 1009.6 hPa | 0 mm | - | 81 W/m² | - |
| 1777916405 | 12.78° C | 68% | 1009.5 hPa | 0 mm | - | 118 W/m² | - |
| 1777915808 | 12.78° C | 68% | 1009.7 hPa | 0 mm | - | 44 W/m² | - |
| 1777915205 | 12.78° C | 67% | 1009.7 hPa | 0 mm | - | 65 W/m² | - |
| 1777914605 | 13.33° C | 68% | 1009.6 hPa | 0 mm | - | 67 W/m² | - |
| 1777914008 | 13.33° C | 66% | 1009.5 hPa | 0 mm | - | 65 W/m² | - |
| 1777913405 | 13.33° C | 67% | 1009.5 hPa | 0 mm | - | 53 W/m² | - |
| 1777912806 | 13.33° C | 67% | 1009.4 hPa | 0 mm | - | 84 W/m² | - |
| 1777912208 | 13.33° C | 67% | 1009.5 hPa | 0 mm | - | 46 W/m² | - |
| 1777911605 | 13.33° C | 68% | 1009.5 hPa | 0 mm | - | 47 W/m² | - |
| 1777911006 | 13.33° C | 68% | 1009.6 hPa | 0 mm | - | 63 W/m² | - |
| 1777910408 | 13.33° C | 67% | 1009.7 hPa | 0 mm | - | 53 W/m² | - |
| 1777909806 | 13.33° C | 67% | 1009.7 hPa | 0 mm | - | 60 W/m² | - |
| 1777909205 | 13.89° C | 66% | 1009.8 hPa | 0 mm | - | 54 W/m² | - |
| 1777908609 | 13.89° C | 65% | 1009.8 hPa | 0 mm | - | 70 W/m² | - |
| 1777908006 | 13.89° C | 67% | 1009.8 hPa | 0 mm | - | 220 W/m² | - |
| 1777907406 | 13.89° C | 65% | 1009.8 hPa | 0 mm | - | 185 W/m² | - |
| 1777906808 | 14.44° C | 63% | 1009.7 hPa | 0 mm | - | 74 W/m² | - |
| 1777906205 | 14.44° C | 62% | 1009.7 hPa | 0 mm | - | 72 W/m² | - |
| 1777905606 | 14.44° C | 64% | 1009.8 hPa | 0 mm | - | 550 W/m² | - |
| 1777905008 | 14.44° C | 66% | 1009.8 hPa | 0 mm | - | 582 W/m² | - |
| 1777904406 | 14.44° C | 66% | 1009.9 hPa | 0 mm | - | 415 W/m² | - |
| 1777903806 | 14.44° C | 65% | 1009.9 hPa | 0 mm | - | 334 W/m² | - |
| 1777903208 | 14.44° C | 68% | 1009.9 hPa | 0 mm | - | 670 W/m² | - |
* Rain latest hour (hover to see other rain measurements)
** Current wind speed in m/s (hover to see current wind gust speed)